Makkovik, Canada
Current Conditions -  °F | °C
As of 5:00 PM on Saturday 22 Nov 2014 (Local Time) from CWCA Reporting Station
Broken Clouds Broken Clouds  
Wind Chill:   Ceiling: 2500
Heat Index: 19°   Visibility: 15mi
Dew Point: 12°   Wind: 20mph
Humidity: 74%   Direction: 280°W
Pressure: 29.29"   Gusts: 29mph
Location:  55.08°N, 59.18°W
Report Text: CWCA 222100Z 28017G25KT 15SM BKN025 BKN070 M07/M11 A2929 RMK SC5AC1 SLP921
Loading
Personal Weather Stations






























Interactive Weather Map New forecast layout! Learn more

10-Day Weather Forecast

Advertisements
Track Severe Weather on mobile